createdAt,value
2022-10-18T00:00:18.793Z,6.33
2022-10-18T00:02:45.527Z,5.73
2022-10-18T00:05:12.220Z,5.73
2022-10-18T00:07:38.943Z,5.90
2022-10-18T00:10:06.223Z,6.50
2022-10-18T00:12:35.466Z,6.47
2022-10-18T00:15:02.965Z,6.40
2022-10-18T00:17:29.926Z,9.50
2022-10-18T00:19:56.874Z,7.90
2022-10-18T00:22:23.800Z,6.60
2022-10-18T00:24:50.497Z,5.80
2022-10-18T00:27:18.380Z,6.63
2022-10-18T00:29:45.282Z,8.63
2022-10-18T00:32:14.909Z,6.60
2022-10-18T00:34:41.545Z,8.17
2022-10-18T00:37:08.238Z,6.33
2022-10-18T00:39:35.238Z,9.30
2022-10-18T00:42:03.552Z,8.50
2022-10-18T00:44:30.207Z,7.47
2022-10-18T00:47:02.370Z,6.77
2022-10-18T00:49:34.126Z,6.90
2022-10-18T00:52:11.578Z,10.13
2022-10-18T00:54:41.797Z,6.50
2022-10-18T00:57:10.390Z,5.97
2022-10-18T00:59:37.623Z,5.70
2022-10-18T01:02:05.769Z,5.90
2022-10-18T01:04:32.794Z,6.50
2022-10-18T01:07:05.130Z,6.40
2022-10-18T01:09:56.445Z,6.63
2022-10-18T01:12:35.148Z,12.10
2022-10-18T01:15:28.268Z,10.17
2022-10-18T01:18:03.937Z,6.70
2022-10-18T01:21:13.308Z,7.07
2022-10-18T01:24:28.270Z,6.13
2022-10-18T01:27:03.925Z,7.70
2022-10-18T01:29:39.838Z,9.47
2022-10-18T01:32:24.482Z,7.60
2022-10-18T01:34:57.248Z,8.88
2022-10-18T01:37:26.331Z,5.77
2022-10-18T01:39:56.568Z,5.40
2022-10-18T01:42:24.098Z,4.07
2022-10-18T01:44:52.876Z,4.33
2022-10-18T01:47:21.669Z,5.03
2022-10-18T01:49:48.354Z,5.67
2022-10-18T01:52:16.408Z,5.93
2022-10-18T01:54:49.094Z,5.77
2022-10-18T01:57:31.722Z,22.20
2022-10-18T02:00:24.703Z,12.07
2022-10-18T02:02:58.826Z,11.87
2022-10-18T02:05:34.647Z,18.55
2022-10-18T02:08:22.044Z,11.10
2022-10-18T02:10:54.380Z,10.10
2022-10-18T02:13:23.669Z,20.63
2022-10-18T02:15:56.427Z,7.87
2022-10-18T02:18:32.722Z,6.00
2022-10-18T02:21:03.103Z,9.20
2022-10-18T02:23:31.441Z,9.47
2022-10-18T02:25:58.272Z,11.73
2022-10-18T02:31:15.928Z,11.60
2022-10-18T02:33:57.009Z,10.60
2022-10-18T02:36:45.528Z,10.10
2022-10-18T02:39:18.709Z,10.27
2022-10-18T02:41:45.649Z,8.63
2022-10-18T02:44:12.360Z,11.00
2022-10-18T02:46:40.010Z,10.17
2022-10-18T02:49:07.245Z,9.13
2022-10-18T02:51:33.875Z,21.03
2022-10-18T02:54:00.620Z,19.80
2022-10-18T02:56:27.289Z,14.00
2022-10-18T02:58:54.310Z,14.23
2022-10-18T03:01:21.097Z,12.37
2022-10-18T03:03:47.906Z,14.03
2022-10-18T03:06:14.584Z,36.87
2022-10-18T03:08:41.268Z,44.47
2022-10-18T03:11:08.050Z,42.57
2022-10-18T03:13:35.133Z,26.50
2022-10-18T03:16:02.306Z,34.00
2022-10-18T03:18:29.140Z,41.03
2022-10-18T03:20:55.831Z,30.77
2022-10-18T03:23:22.511Z,14.67
2022-10-18T03:25:49.239Z,14.40
2022-10-18T03:28:15.947Z,13.07
2022-10-18T03:30:42.570Z,14.80
2022-10-18T03:33:09.840Z,15.50
2022-10-18T03:35:36.468Z,12.97
2022-10-18T03:38:03.287Z,13.07
2022-10-18T03:42:57.536Z,16.70
2022-10-18T03:45:28.845Z,30.13
2022-10-18T03:47:57.932Z,32.87
2022-10-18T03:50:24.615Z,27.03
2022-10-18T03:52:51.268Z,26.77
2022-10-18T03:55:17.945Z,21.37
2022-10-18T03:57:44.612Z,19.50
2022-10-18T04:00:12.735Z,18.93
2022-10-18T04:02:39.583Z,18.00
2022-10-18T04:05:07.611Z,19.60
2022-10-18T04:10:07.638Z,19.03
2022-10-18T04:12:34.594Z,9.67
2022-10-18T04:15:01.628Z,7.20
2022-10-18T04:17:28.338Z,7.53
2022-10-18T04:19:55.064Z,7.73
2022-10-18T04:22:21.727Z,8.40
2022-10-18T04:24:48.480Z,8.70
2022-10-18T04:27:15.179Z,8.97
2022-10-18T04:29:41.860Z,8.30
2022-10-18T04:32:08.643Z,9.73
2022-10-18T04:34:35.314Z,9.43
2022-10-18T04:37:01.999Z,11.40
2022-10-18T04:39:28.798Z,10.67
2022-10-18T04:41:55.516Z,10.47
2022-10-18T04:44:22.977Z,10.20
2022-10-18T04:46:49.819Z,13.77
2022-10-18T04:49:16.500Z,12.10
2022-10-18T04:51:43.161Z,11.60
2022-10-18T04:54:09.803Z,25.90
2022-10-18T04:56:36.502Z,24.00
2022-10-18T04:59:03.250Z,32.50
2022-10-18T05:01:30.026Z,32.30
2022-10-18T05:03:56.731Z,52.57
2022-10-18T05:06:23.561Z,49.67
2022-10-18T05:08:50.298Z,42.13
2022-10-18T05:11:16.993Z,29.47
2022-10-18T05:13:46.040Z,28.57
2022-10-18T05:16:16.101Z,19.97
2022-10-18T05:18:43.390Z,13.57
2022-10-18T05:21:10.088Z,12.10
2022-10-18T05:23:36.791Z,13.53
2022-10-18T05:26:06.664Z,13.73
2022-10-18T05:28:39.261Z,15.37
2022-10-18T05:31:09.839Z,14.63
2022-10-18T05:33:36.553Z,12.83
2022-10-18T05:36:03.466Z,14.10
2022-10-18T05:38:33.067Z,12.73
2022-10-18T05:41:00.170Z,13.90
2022-10-18T05:43:30.382Z,18.60
2022-10-18T05:45:57.212Z,15.27
2022-10-18T05:48:23.921Z,13.70
2022-10-18T05:50:50.602Z,15.60
2022-10-18T05:53:36.722Z,17.50
2022-10-18T05:56:04.278Z,17.67
2022-10-18T05:58:30.951Z,16.10
2022-10-18T06:01:01.937Z,16.77
2022-10-18T06:03:30.978Z,16.00
2022-10-18T06:06:04.891Z,17.08
2022-10-18T06:08:31.742Z,18.95
2022-10-18T06:10:58.478Z,22.80
2022-10-18T06:13:25.220Z,21.88
2022-10-18T06:15:57.282Z,22.58
2022-10-18T06:18:24.113Z,22.38
2022-10-18T06:20:56.848Z,20.85
2022-10-18T06:23:23.559Z,21.20
2022-10-18T06:25:50.214Z,19.33
2022-10-18T06:28:16.862Z,19.23
2022-10-18T06:30:44.466Z,18.52
2022-10-18T06:33:12.072Z,16.77
2022-10-18T06:35:38.755Z,13.75
2022-10-18T06:38:08.362Z,23.40
2022-10-18T06:40:38.118Z,23.48
2022-10-18T06:43:20.705Z,21.50
2022-10-18T06:45:48.806Z,19.95
2022-10-18T06:48:16.336Z,18.92
2022-10-18T06:50:43.456Z,21.08
2022-10-18T06:53:10.239Z,19.17
2022-10-18T06:55:36.890Z,15.93
2022-10-18T06:58:03.668Z,8.52
2022-10-18T07:00:30.352Z,10.90
2022-10-18T07:02:58.381Z,13.30
2022-10-18T07:05:25.181Z,12.98
2022-10-18T07:07:54.342Z,12.73
2022-10-18T07:10:24.300Z,13.48
2022-10-18T07:12:53.487Z,17.52
2022-10-18T07:15:24.298Z,14.68
2022-10-18T07:17:51.108Z,13.77
2022-10-18T07:20:17.967Z,12.57
2022-10-18T07:22:44.619Z,10.70
2022-10-18T07:25:11.294Z,9.02
2022-10-18T07:27:40.008Z,8.48
2022-10-18T07:30:08.609Z,9.48
2022-10-18T07:32:35.490Z,8.15
2022-10-18T07:35:02.537Z,6.22
2022-10-18T07:37:30.414Z,6.95
2022-10-18T07:39:57.236Z,6.40
2022-10-18T07:42:23.954Z,5.55
2022-10-18T07:44:50.810Z,4.78
2022-10-18T07:47:18.183Z,5.20
2022-10-18T07:49:45.227Z,5.85
2022-10-18T07:52:11.949Z,4.88
2022-10-18T07:54:38.703Z,4.40
2022-10-18T07:57:05.493Z,4.57
2022-10-18T07:59:32.220Z,5.03
2022-10-18T08:01:59.005Z,6.07
2022-10-18T08:04:31.452Z,3.83
2022-10-18T08:06:58.140Z,3.60
2022-10-18T08:09:24.826Z,4.57
2022-10-18T08:11:51.519Z,11.82
2022-10-18T08:14:18.493Z,3.70
2022-10-18T08:16:45.339Z,4.10
2022-10-18T08:19:12.148Z,4.32
2022-10-18T08:21:38.824Z,4.32
2022-10-18T08:24:05.817Z,4.03
2022-10-18T08:26:32.748Z,4.10
2022-10-18T08:29:17.777Z,4.28
2022-10-18T08:31:46.096Z,4.28
2022-10-18T08:34:17.298Z,3.30
2022-10-18T08:36:46.287Z,3.33
2022-10-18T08:39:12.962Z,6.30
2022-10-18T08:42:07.396Z,7.25
2022-10-18T08:44:44.067Z,4.18
2022-10-18T08:47:21.369Z,4.10
2022-10-18T08:49:56.757Z,5.63
2022-10-18T08:53:17.398Z,7.05
2022-10-18T08:55:54.805Z,4.05
2022-10-18T08:58:24.781Z,3.50
2022-10-18T09:01:24.609Z,3.40
2022-10-18T09:04:16.275Z,3.40
2022-10-18T09:06:58.250Z,3.17
2022-10-18T09:09:36.975Z,3.35
2022-10-18T09:12:03.965Z,2.92
2022-10-18T09:14:46.835Z,2.60
2022-10-18T09:17:43.194Z,3.22
2022-10-18T09:20:22.134Z,3.20
2022-10-18T09:22:53.730Z,2.80
2022-10-18T09:25:23.699Z,2.80
2022-10-18T09:27:55.975Z,2.78
2022-10-18T09:30:39.676Z,2.72
2022-10-18T09:33:12.521Z,2.90
2022-10-18T09:36:08.362Z,2.38
2022-10-18T09:38:45.383Z,2.05
2022-10-18T09:41:15.098Z,2.63
2022-10-18T09:43:56.655Z,2.90
2022-10-18T09:46:26.781Z,2.20
2022-10-18T09:48:59.523Z,2.40
2022-10-18T09:51:30.840Z,2.00
2022-10-18T09:54:22.174Z,2.40
2022-10-18T09:57:03.607Z,1.80
2022-10-18T09:59:35.579Z,1.80
2022-10-18T10:02:02.313Z,1.83
2022-10-18T10:04:29.094Z,1.88
2022-10-18T10:06:57.198Z,2.40
2022-10-18T10:09:30.056Z,2.22
2022-10-18T10:11:58.115Z,2.00
2022-10-18T10:14:27.592Z,2.10
2022-10-18T10:17:02.494Z,2.65
2022-10-18T10:22:12.189Z,2.70
2022-10-18T10:24:54.787Z,2.90
2022-10-18T10:27:29.765Z,2.10
2022-10-18T10:30:06.790Z,6.15
2022-10-18T10:32:46.711Z,2.40
2022-10-18T10:35:53.207Z,2.50
2022-10-18T10:38:26.246Z,1.67
2022-10-18T10:40:53.425Z,2.80
2022-10-18T10:43:37.625Z,2.25
2022-10-18T10:46:12.888Z,2.08
2022-10-18T10:48:41.631Z,3.40
2022-10-18T10:51:11.107Z,5.53
2022-10-18T10:53:51.417Z,2.40
2022-10-18T10:56:50.106Z,2.05
2022-10-18T10:59:20.531Z,1.33
2022-10-18T11:01:51.510Z,2.67
2022-10-18T11:04:30.240Z,2.67
2022-10-18T11:07:17.105Z,2.22
2022-10-18T11:09:59.000Z,1.40
2022-10-18T11:12:33.458Z,1.70
2022-10-18T11:15:18.393Z,1.70
2022-10-18T11:17:51.307Z,2.15
2022-10-18T11:20:24.301Z,1.45
2022-10-18T11:22:56.963Z,1.75
2022-10-18T11:25:27.875Z,3.15
2022-10-18T11:28:06.046Z,1.92
2022-10-18T11:30:58.995Z,1.95
2022-10-18T11:34:14.043Z,2.22
2022-10-18T11:37:29.961Z,1.88
2022-10-18T11:40:06.873Z,1.50
2022-10-18T11:43:14.792Z,1.50
2022-10-18T11:46:00.631Z,3.15
2022-10-18T11:48:59.009Z,2.00
2022-10-18T11:51:34.097Z,1.60
2022-10-18T11:54:33.586Z,1.90
2022-10-18T11:57:22.074Z,1.40
2022-10-18T11:59:57.780Z,1.50
2022-10-18T12:02:45.646Z,1.50
2022-10-18T12:05:28.723Z,1.52
2022-10-18T12:08:15.551Z,1.58
2022-10-18T12:11:03.890Z,1.60
2022-10-18T12:13:58.874Z,1.45
2022-10-18T12:16:49.991Z,1.85
2022-10-18T12:19:26.746Z,1.40
2022-10-18T12:22:03.177Z,1.40
2022-10-18T12:24:32.059Z,1.45
2022-10-18T12:27:01.570Z,1.38
2022-10-18T12:29:53.601Z,1.60
2022-10-18T12:32:34.914Z,1.38
2022-10-18T12:35:11.289Z,1.10
2022-10-18T12:37:56.007Z,1.45
2022-10-18T12:40:44.600Z,1.63
2022-10-18T12:43:21.497Z,1.40
2022-10-18T12:45:55.271Z,1.35
2022-10-18T12:48:33.213Z,1.35
2022-10-18T12:51:05.919Z,1.23
2022-10-18T12:53:33.826Z,1.90
2022-10-18T12:56:36.828Z,1.70
2022-10-18T12:59:18.833Z,2.05
2022-10-18T13:01:51.679Z,1.75
2022-10-18T13:04:27.940Z,2.10
2022-10-18T13:07:00.710Z,1.33
2022-10-18T13:09:29.899Z,1.92
2022-10-18T13:12:21.183Z,2.08
2022-10-18T13:15:37.649Z,3.00
2022-10-18T13:18:24.460Z,1.52
2022-10-18T13:21:10.594Z,1.80
2022-10-18T13:24:00.372Z,1.90
2022-10-18T13:26:58.132Z,1.20
2022-10-18T13:29:54.239Z,1.70
2022-10-18T13:32:57.390Z,1.50
2022-10-18T13:35:43.385Z,1.75
2022-10-18T13:38:47.820Z,1.60
2022-10-18T13:44:23.018Z,1.52
2022-10-18T13:46:49.659Z,1.20
2022-10-18T13:49:31.538Z,1.77
2022-10-18T13:52:20.764Z,1.77
2022-10-18T13:54:56.631Z,1.92
2022-10-18T13:57:47.706Z,1.60
2022-10-18T14:00:37.933Z,1.45
2022-10-18T14:04:02.461Z,1.98
2022-10-18T14:06:50.555Z,2.08
2022-10-18T14:09:43.377Z,1.63
2022-10-18T14:12:44.278Z,2.20
2022-10-18T14:15:34.466Z,1.65
2022-10-18T14:18:41.573Z,2.17
2022-10-18T14:21:19.859Z,1.83
2022-10-18T14:23:48.445Z,2.10
2022-10-18T14:26:18.628Z,1.88
2022-10-18T14:28:59.528Z,2.90
2022-10-18T14:31:27.630Z,2.63
2022-10-18T14:33:58.439Z,3.40
2022-10-18T14:36:29.642Z,6.30
2022-10-18T14:38:59.357Z,9.32
2022-10-18T14:41:28.843Z,12.20
2022-10-18T14:44:29.715Z,22.33
2022-10-18T14:47:01.407Z,8.82
2022-10-18T14:49:28.886Z,5.05
2022-10-18T14:51:58.681Z,6.40
2022-10-18T14:54:31.687Z,11.05
2022-10-18T14:57:00.805Z,10.32
2022-10-18T14:59:30.967Z,12.02
2022-10-18T15:02:14.401Z,11.38
2022-10-18T15:04:46.056Z,13.95
2022-10-18T15:07:18.349Z,15.15
2022-10-18T15:09:47.239Z,19.67
2022-10-18T15:12:16.446Z,24.33
2022-10-18T15:14:44.828Z,17.02
2022-10-18T15:17:21.261Z,16.20
2022-10-18T15:20:28.707Z,26.80
2022-10-18T15:23:21.194Z,40.85
2022-10-18T15:25:48.791Z,39.53
2022-10-18T15:28:29.484Z,30.77
2022-10-18T15:30:58.600Z,41.35
2022-10-18T15:33:27.719Z,51.58
2022-10-18T15:35:55.124Z,56.15
2022-10-18T15:38:29.451Z,36.60
2022-10-18T15:40:56.155Z,42.30
2022-10-18T15:43:26.186Z,35.45
2022-10-18T15:45:58.825Z,30.00
2022-10-18T15:48:33.742Z,39.35
2022-10-18T15:51:04.865Z,34.88
2022-10-18T15:53:43.849Z,24.48
2022-10-18T15:56:32.820Z,24.05
2022-10-18T15:59:04.335Z,24.88
2022-10-18T16:01:44.379Z,20.85
2022-10-18T16:04:20.234Z,15.85
2022-10-18T16:06:46.873Z,14.93
2022-10-18T16:09:17.921Z,16.25
2022-10-18T16:11:45.346Z,19.67
2022-10-18T16:14:12.035Z,17.02
2022-10-18T16:16:40.430Z,22.10
2022-10-18T16:19:07.967Z,22.10
2022-10-18T16:21:38.183Z,22.70
2022-10-18T16:24:05.928Z,26.58
2022-10-18T16:26:33.284Z,24.23
2022-10-18T16:29:00.777Z,21.55
2022-10-18T16:31:30.866Z,38.15
2022-10-18T16:33:58.538Z,44.95
2022-10-18T16:36:29.101Z,36.17
2022-10-18T16:38:57.661Z,32.25
2022-10-18T16:41:24.803Z,34.88
2022-10-18T16:43:51.554Z,38.22
2022-10-18T16:46:21.181Z,32.83
2022-10-18T16:48:49.923Z,26.08
2022-10-18T16:51:17.994Z,18.70
2022-10-18T16:53:44.872Z,22.88
2022-10-18T16:56:39.046Z,25.20
2022-10-18T16:59:05.774Z,20.73
2022-10-18T17:01:32.746Z,22.67
2022-10-18T17:03:59.416Z,30.27
2022-10-18T17:06:28.399Z,33.45
2022-10-18T17:08:56.224Z,37.92
2022-10-18T17:11:25.450Z,38.67
2022-10-18T17:13:52.281Z,38.75
2022-10-18T17:16:34.911Z,33.42
2022-10-18T17:19:04.721Z,32.85
2022-10-18T17:21:33.542Z,26.25
2022-10-18T17:24:04.517Z,26.73
2022-10-18T17:26:32.505Z,29.45
2022-10-18T17:29:05.504Z,21.40
2022-10-18T17:31:33.220Z,17.63
2022-10-18T17:34:01.860Z,16.77
2022-10-18T17:36:32.763Z,16.63
2022-10-18T17:38:59.552Z,16.45
2022-10-18T17:41:26.352Z,16.52
2022-10-18T17:43:53.429Z,26.02
2022-10-18T17:46:20.356Z,29.55
2022-10-18T17:48:47.482Z,29.98
2022-10-18T17:51:16.544Z,28.15
2022-10-18T17:53:43.299Z,27.45
2022-10-18T17:56:11.107Z,24.83
2022-10-18T17:58:37.848Z,21.15
2022-10-18T18:01:14.920Z,22.20
2022-10-18T18:03:42.060Z,19.67
2022-10-18T18:06:20.976Z,26.80
2022-10-18T18:08:48.592Z,23.27
2022-10-18T18:11:16.377Z,22.45
2022-10-18T18:13:43.687Z,22.27
2022-10-18T18:16:21.897Z,30.52
2022-10-18T18:18:51.213Z,27.42
2022-10-18T18:21:17.988Z,30.27
2022-10-18T18:23:45.239Z,30.77
2022-10-18T18:26:11.942Z,17.48
2022-10-18T18:28:39.029Z,15.82
2022-10-18T18:31:17.607Z,12.30
2022-10-18T18:33:45.102Z,12.85
2022-10-18T18:36:12.676Z,12.40
2022-10-18T18:38:42.738Z,11.02
2022-10-18T18:41:18.807Z,13.20
2022-10-18T18:44:00.344Z,13.23
2022-10-18T18:46:29.554Z,12.43
2022-10-18T18:48:59.351Z,11.63
2022-10-18T18:51:26.398Z,11.05
2022-10-18T18:53:53.295Z,13.13
2022-10-18T18:56:23.655Z,13.35
2022-10-18T18:58:52.561Z,12.10
2022-10-18T19:01:24.953Z,14.65
2022-10-18T19:03:53.550Z,15.02
2022-10-18T19:06:23.531Z,13.43
2022-10-18T19:08:52.693Z,15.55
2022-10-18T19:11:21.457Z,17.67
2022-10-18T19:13:49.011Z,14.35
2022-10-18T19:16:24.866Z,11.45
2022-10-18T19:19:05.480Z,12.88
2022-10-18T19:21:35.406Z,13.35
2022-10-18T19:24:03.572Z,13.05
2022-10-18T19:26:44.972Z,13.20
2022-10-18T19:29:21.448Z,12.57
2022-10-18T19:31:49.392Z,12.75
2022-10-18T19:34:17.373Z,14.75
2022-10-18T19:36:46.604Z,18.75
2022-10-18T19:39:24.678Z,17.60
2022-10-18T19:41:55.281Z,18.75
2022-10-18T19:44:23.844Z,16.90
2022-10-18T19:46:51.047Z,16.48
2022-10-18T19:49:18.509Z,15.05
2022-10-18T19:51:45.331Z,10.95
2022-10-18T19:54:13.607Z,11.52
2022-10-18T19:56:43.742Z,12.93
2022-10-18T19:59:11.952Z,13.07
2022-10-18T20:01:38.977Z,14.07
2022-10-18T20:04:07.412Z,13.13
2022-10-18T20:06:35.131Z,10.65
2022-10-18T20:09:01.835Z,11.48
2022-10-18T20:11:29.250Z,12.63
2022-10-18T20:13:56.896Z,11.48
2022-10-18T20:16:28.314Z,12.20
2022-10-18T20:19:00.160Z,12.32
2022-10-18T20:21:28.745Z,13.02
2022-10-18T20:23:55.936Z,14.45
2022-10-18T20:26:25.379Z,12.80
2022-10-18T20:28:57.150Z,12.63
2022-10-18T20:31:35.677Z,11.90
2022-10-18T20:34:05.027Z,12.60
2022-10-18T20:36:32.660Z,13.70
2022-10-18T20:38:59.596Z,13.18
2022-10-18T20:41:27.917Z,13.85
2022-10-18T20:43:59.802Z,13.88
2022-10-18T20:46:29.879Z,13.13
2022-10-18T20:48:56.621Z,11.00
2022-10-18T20:51:23.828Z,9.02
2022-10-18T20:53:51.463Z,8.23
2022-10-18T20:56:21.215Z,8.98
2022-10-18T20:58:51.032Z,10.38
2022-10-18T21:01:20.922Z,10.25
2022-10-18T21:03:49.155Z,8.50
2022-10-18T21:06:21.670Z,7.47
2022-10-18T21:08:52.966Z,8.00
2022-10-18T21:11:19.674Z,8.18
2022-10-18T21:13:59.013Z,9.35
2022-10-18T21:16:26.818Z,8.95
2022-10-18T21:18:53.723Z,8.20
2022-10-18T21:21:23.189Z,8.32
2022-10-18T21:23:51.165Z,11.75
2022-10-18T21:26:19.054Z,12.45
2022-10-18T21:28:46.011Z,10.95
2022-10-18T21:31:18.335Z,8.85
2022-10-18T21:33:46.576Z,8.57
2022-10-18T21:36:14.615Z,10.27
2022-10-18T21:38:45.669Z,9.27
2022-10-18T21:41:14.587Z,12.55
2022-10-18T21:43:43.772Z,13.32
2022-10-18T21:46:11.746Z,10.55
2022-10-18T21:48:39.439Z,9.27
2022-10-18T21:51:07.550Z,8.00
2022-10-18T21:53:34.896Z,7.90
2022-10-18T21:56:06.906Z,9.45
2022-10-18T21:58:37.115Z,7.47
2022-10-18T22:01:11.734Z,8.73
2022-10-18T22:03:38.685Z,9.18
2022-10-18T22:06:13.710Z,7.10
2022-10-18T22:08:48.082Z,7.47
2022-10-18T22:11:15.049Z,7.05
2022-10-18T22:13:42.456Z,6.83
2022-10-18T22:16:11.659Z,7.25
2022-10-18T22:18:38.357Z,9.00
2022-10-18T22:21:07.439Z,7.15
2022-10-18T22:23:36.381Z,7.25
2022-10-18T22:26:11.481Z,6.53
2022-10-18T22:28:39.671Z,8.80
2022-10-18T22:31:06.969Z,9.60
2022-10-18T22:33:33.772Z,12.50
2022-10-18T22:36:00.546Z,10.80
2022-10-18T22:38:27.240Z,10.60
2022-10-18T22:40:53.851Z,10.50
2022-10-18T22:43:20.607Z,10.55
2022-10-18T22:45:47.231Z,5.68
2022-10-18T22:48:13.864Z,5.22
2022-10-18T22:50:40.568Z,6.00
2022-10-18T22:53:07.513Z,5.55
2022-10-18T22:55:34.205Z,5.75
2022-10-18T22:58:00.831Z,6.07
2022-10-18T23:00:27.707Z,5.80
2022-10-18T23:02:54.373Z,5.47
2022-10-18T23:05:21.006Z,5.67
2022-10-18T23:07:49.329Z,13.07
2022-10-18T23:10:16.546Z,15.60
2022-10-18T23:12:43.237Z,16.77
2022-10-18T23:15:10.425Z,15.70
2022-10-18T23:17:37.558Z,12.47
2022-10-18T23:20:05.469Z,13.07
2022-10-18T23:22:34.136Z,9.93
2022-10-18T23:25:01.116Z,6.03
2022-10-18T23:27:29.277Z,5.73
2022-10-18T23:29:56.195Z,5.20
2022-10-18T23:32:22.845Z,4.43
2022-10-18T23:34:49.547Z,4.57
2022-10-18T23:37:16.254Z,22.80
2022-10-18T23:39:42.926Z,17.20
2022-10-18T23:42:09.689Z,7.50
2022-10-18T23:44:36.844Z,5.03
2022-10-18T23:47:03.570Z,5.00
2022-10-18T23:49:30.306Z,4.00
2022-10-18T23:51:56.933Z,4.50
2022-10-18T23:54:23.589Z,6.73
2022-10-18T23:56:50.235Z,6.63
2022-10-18T23:59:17.127Z,5.63
